Time;durP1;ratioP1;P1;durP2;ratioP2;P2;SDS_P1;SDS_P2;PMS_P1;PMS_P2;Temp;Humidity;BMP_temperature;BMP_pressure;BME280_temperature;BME280_humidity;BME280_pressure;Samples;Min_cycle;Max_cycle;Signal;HPM_P1;HPM_P2
2024/01/22 00:01:32;;;;;;;5.83;2.37;;;;;;;;;;5024619;28;20197;-66
2024/01/22 00:03:59;;;;;;;4.83;2.47;;;;;;;;;;5018435;28;20260;-66
2024/01/22 00:06:26;;;;;;;5.10;2.37;;;;;;;;;;5020460;28;20189;-67
2024/01/22 00:08:55;;;;;;;3.80;2.60;;;;;;;;;;5027158;28;20196;-67
2024/01/22 00:11:22;;;;;;;4.27;2.40;;;;;;;;;;5017654;28;20196;-66
2024/01/22 00:13:49;;;;;;;5.93;2.60;;;;;;;;;;5020298;28;20197;-66
2024/01/22 00:16:16;;;;;;;4.20;2.53;;;;;;;;;;5020616;28;20192;-66
2024/01/22 00:18:43;;;;;;;4.60;2.63;;;;;;;;;;5023883;28;20235;-66
2024/01/22 00:21:10;;;;;;;4.50;2.20;;;;;;;;;;5026145;28;20191;-66
2024/01/22 00:23:36;;;;;;;2.77;2.53;;;;;;;;;;5023241;28;20206;-66
2024/01/22 00:26:05;;;;;;;6.03;2.30;;;;;;;;;;5024233;28;20286;-67
2024/01/22 00:28:32;;;;;;;5.10;2.27;;;;;;;;;;5021350;28;20206;-66
2024/01/22 00:30:59;;;;;;;3.57;2.17;;;;;;;;;;5023054;28;20204;-66
2024/01/22 00:33:26;;;;;;;4.40;2.20;;;;;;;;;;5022083;28;20213;-67
2024/01/22 00:35:53;;;;;;;4.77;2.43;;;;;;;;;;5025280;28;20207;-66
2024/01/22 00:38:20;;;;;;;3.13;2.10;;;;;;;;;;5028246;28;20200;-67
2024/01/22 00:40:48;;;;;;;3.20;2.30;;;;;;;;;;5025950;28;20203;-66
2024/01/22 00:43:16;;;;;;;5.70;2.20;;;;;;;;;;5023414;28;20195;-65
2024/01/22 00:45:43;;;;;;;6.23;2.30;;;;;;;;;;5028974;28;20208;-67
2024/01/22 00:48:10;;;;;;;4.77;2.63;;;;;;;;;;5019834;28;20212;-67
2024/01/22 00:50:38;;;;;;;4.80;2.53;;;;;;;;;;5025179;28;20205;-67
2024/01/22 00:53:05;;;;;;;2.67;2.20;;;;;;;;;;5031605;28;20222;-66
2024/01/22 00:55:32;;;;;;;3.83;2.60;;;;;;;;;;5020574;28;20233;-67
2024/01/22 00:57:59;;;;;;;5.47;2.33;;;;;;;;;;5021885;28;20211;-65
2024/01/22 01:00:28;;;;;;;3.43;2.13;;;;;;;;;;5023493;28;20205;-67
2024/01/22 01:02:55;;;;;;;3.20;2.30;;;;;;;;;;5023859;28;20224;-66
2024/01/22 01:05:22;;;;;;;3.33;2.33;;;;;;;;;;5022243;28;20201;-67
2024/01/22 01:07:49;;;;;;;5.23;2.17;;;;;;;;;;5020748;28;20196;-66
2024/01/22 01:10:17;;;;;;;6.93;2.37;;;;;;;;;;5023639;28;20207;-67
2024/01/22 01:12:44;;;;;;;3.47;1.90;;;;;;;;;;5018543;28;20236;-66
2024/01/22 01:15:11;;;;;;;3.30;1.97;;;;;;;;;;5021362;28;20200;-67
2024/01/22 01:17:40;;;;;;;5.87;2.00;;;;;;;;;;5021444;28;20194;-66
2024/01/22 01:20:07;;;;;;;3.20;1.97;;;;;;;;;;5020916;28;20203;-65
2024/01/22 01:22:34;;;;;;;5.33;2.43;;;;;;;;;;5028459;28;20481;-66
2024/01/22 01:25:01;;;;;;;4.57;2.00;;;;;;;;;;5026028;28;20203;-65
2024/01/22 01:27:28;;;;;;;2.70;1.80;;;;;;;;;;5025734;28;20211;-66
2024/01/22 01:29:56;;;;;;;3.30;2.07;;;;;;;;;;5029080;28;20214;-65
2024/01/22 01:32:23;;;;;;;4.73;1.90;;;;;;;;;;5022790;28;20216;-66
2024/01/22 01:34:51;;;;;;;3.63;1.90;;;;;;;;;;5031520;28;20204;-67
2024/01/22 01:37:17;;;;;;;2.37;1.70;;;;;;;;;;5029945;28;20227;-65
2024/01/22 01:39:44;;;;;;;3.47;1.90;;;;;;;;;;5030140;28;20227;-67
2024/01/22 01:42:11;;;;;;;3.73;2.00;;;;;;;;;;5024554;28;20193;-66
2024/01/22 01:44:50;;;;;;;3.23;1.90;;;;;;;;;;5025508;28;20205;-66
2024/01/22 01:47:17;;;;;;;4.57;1.80;;;;;;;;;;5028446;28;20201;-66
2024/01/22 01:49:44;;;;;;;3.27;1.70;;;;;;;;;;5024570;28;20200;-66
2024/01/22 01:52:13;;;;;;;4.17;1.97;;;;;;;;;;5029406;28;20212;-66
2024/01/22 01:54:42;;;;;;;2.83;1.67;;;;;;;;;;5031572;28;20210;-67
2024/01/22 01:57:09;;;;;;;4.40;1.97;;;;;;;;;;5026245;28;20206;-66
2024/01/22 01:59:37;;;;;;;4.73;1.90;;;;;;;;;;5023536;28;20197;-66
2024/01/22 02:02:04;;;;;;;3.13;1.70;;;;;;;;;;5027398;28;20231;-66
2024/01/22 02:04:31;;;;;;;3.40;1.63;;;;;;;;;;5027158;28;20203;-66
2024/01/22 02:06:58;;;;;;;2.53;2.07;;;;;;;;;;5026567;28;20205;-66
2024/01/22 02:09:40;;;;;;;4.43;2.03;;;;;;;;;;5028770;28;20201;-66
2024/01/22 02:12:09;;;;;;;1.83;1.73;;;;;;;;;;5018888;28;20204;-66
2024/01/22 02:14:36;;;;;;;1.90;1.70;;;;;;;;;;5026566;28;20219;-65
2024/01/22 02:17:03;;;;;;;3.63;1.93;;;;;;;;;;5026156;28;20192;-67
2024/01/22 02:19:30;;;;;;;3.93;2.07;;;;;;;;;;5025030;28;20209;-67
2024/01/22 02:21:57;;;;;;;4.67;2.00;;;;;;;;;;5025428;28;20212;-66
2024/01/22 02:24:26;;;;;;;3.87;1.73;;;;;;;;;;5020046;28;20528;-67
2024/01/22 02:26:53;;;;;;;3.70;1.70;;;;;;;;;;5027019;28;20235;-66
2024/01/22 02:29:20;;;;;;;3.80;2.10;;;;;;;;;;5024677;28;20212;-66
2024/01/22 02:31:48;;;;;;;3.03;2.10;;;;;;;;;;5024564;28;20270;-67
2024/01/22 02:34:16;;;;;;;4.30;1.80;;;;;;;;;;5020663;28;20219;-67
2024/01/22 02:36:45;;;;;;;1.97;1.70;;;;;;;;;;5023536;28;20205;-67
2024/01/22 02:39:12;;;;;;;3.63;1.97;;;;;;;;;;5032367;28;20291;-67
2024/01/22 02:41:41;;;;;;;2.73;1.67;;;;;;;;;;5024495;28;20407;-67
2024/01/22 02:44:08;;;;;;;2.40;1.77;;;;;;;;;;5024117;28;20473;-67
2024/01/22 02:46:35;;;;;;;2.73;1.97;;;;;;;;;;5027701;28;20206;-67
2024/01/22 02:49:02;;;;;;;2.33;1.80;;;;;;;;;;5027394;28;20299;-67
2024/01/22 02:51:29;;;;;;;4.57;1.80;;;;;;;;;;5029616;28;20212;-67
2024/01/22 02:53:56;;;;;;;2.77;1.73;;;;;;;;;;5029201;28;20225;-67
2024/01/22 02:56:24;;;;;;;4.10;1.90;;;;;;;;;;5029503;28;20294;-66
2024/01/22 02:58:53;;;;;;;4.13;1.77;;;;;;;;;;5026978;28;20200;-67
2024/01/22 03:01:20;;;;;;;3.57;1.73;;;;;;;;;;5023069;28;20284;-67
2024/01/22 03:03:47;;;;;;;2.47;1.97;;;;;;;;;;5022177;28;20243;-66
2024/01/22 03:06:14;;;;;;;4.87;1.97;;;;;;;;;;5023475;28;20204;-65
2024/01/22 03:08:41;;;;;;;4.17;1.80;;;;;;;;;;5027368;28;20208;-66
2024/01/22 03:11:09;;;;;;;4.43;1.90;;;;;;;;;;5023351;28;20200;-66
2024/01/22 03:13:36;;;;;;;4.90;1.90;;;;;;;;;;5023257;28;20262;-67
2024/01/22 03:16:04;;;;;;;3.67;1.70;;;;;;;;;;5028397;28;20291;-67
2024/01/22 03:18:32;;;;;;;3.23;2.00;;;;;;;;;;5022680;28;20209;-67
2024/01/22 03:20:59;;;;;;;3.73;2.17;;;;;;;;;;5024563;28;20216;-66
2024/01/22 03:23:26;;;;;;;3.07;1.90;;;;;;;;;;5029328;28;20204;-67
2024/01/22 03:25:53;;;;;;;4.53;2.07;;;;;;;;;;5022639;28;20192;-66
2024/01/22 03:28:21;;;;;;;3.00;1.77;;;;;;;;;;5026543;28;20207;-67
2024/01/22 03:30:48;;;;;;;4.00;2.13;;;;;;;;;;5020984;28;20213;-66
2024/01/22 03:33:17;;;;;;;3.73;1.90;;;;;;;;;;5020179;28;20217;-65
2024/01/22 03:35:44;;;;;;;1.87;1.60;;;;;;;;;;5017789;28;20205;-67
2024/01/22 03:38:11;;;;;;;3.27;1.63;;;;;;;;;;5025519;28;20208;-67
2024/01/22 03:40:38;;;;;;;4.60;2.13;;;;;;;;;;5023722;28;20200;-67
2024/01/22 03:43:05;;;;;;;2.27;1.70;;;;;;;;;;5024026;28;20197;-67
2024/01/22 03:45:33;;;;;;;3.33;1.83;;;;;;;;;;5019951;28;20204;-68
2024/01/22 03:48:00;;;;;;;3.07;2.00;;;;;;;;;;5023560;28;20204;-65
2024/01/22 03:50:28;;;;;;;5.17;1.70;;;;;;;;;;5019975;28;20288;-67
2024/01/22 03:52:55;;;;;;;4.07;2.13;;;;;;;;;;5023337;28;20212;-65
2024/01/22 03:55:22;;;;;;;2.97;1.90;;;;;;;;;;5020200;28;20201;-65
2024/01/22 03:57:50;;;;;;;3.37;1.70;;;;;;;;;;5020181;28;20204;-66
2024/01/22 04:00:17;;;;;;;3.33;1.60;;;;;;;;;;5020210;28;20225;-65
2024/01/22 04:02:44;;;;;;;3.03;1.70;;;;;;;;;;5020312;28;20236;-66
2024/01/22 04:05:11;;;;;;;4.97;1.90;;;;;;;;;;5021909;28;20200;-65
2024/01/22 04:07:40;;;;;;;4.00;1.80;;;;;;;;;;5023285;28;20211;-64
2024/01/22 04:10:08;;;;;;;4.63;1.80;;;;;;;;;;5023496;28;20193;-65
2024/01/22 04:12:35;;;;;;;4.50;1.60;;;;;;;;;;5027016;28;20271;-65
2024/01/22 04:15:02;;;;;;;1.97;1.30;;;;;;;;;;5021785;28;20199;-66
2024/01/22 04:17:30;;;;;;;2.20;1.60;;;;;;;;;;5018522;28;20214;-66
2024/01/22 04:19:57;;;;;;;2.63;1.23;;;;;;;;;;5024097;28;20243;-65
2024/01/22 04:22:24;;;;;;;2.70;1.70;;;;;;;;;;5020540;28;20216;-66
2024/01/22 04:24:53;;;;;;;3.93;1.40;;;;;;;;;;5021675;28;20211;-60
2024/01/22 04:27:20;;;;;;;4.57;1.50;;;;;;;;;;5019667;28;20204;-60
2024/01/22 04:29:47;;;;;;;1.93;1.20;;;;;;;;;;5017123;28;20203;-61
2024/01/22 04:32:14;;;;;;;2.47;1.57;;;;;;;;;;5023761;28;20208;-60
2024/01/22 04:34:41;;;;;;;1.70;1.20;;;;;;;;;;5025380;28;20213;-61
2024/01/22 04:37:08;;;;;;;2.07;1.30;;;;;;;;;;5020263;28;20207;-60
2024/01/22 04:39:35;;;;;;;3.73;1.37;;;;;;;;;;5021769;28;20211;-60
2024/01/22 04:42:04;;;;;;;4.00;1.30;;;;;;;;;;5026483;28;20200;-59
2024/01/22 04:44:31;;;;;;;1.50;1.30;;;;;;;;;;5021573;28;20214;-59
2024/01/22 04:46:59;;;;;;;3.17;1.20;;;;;;;;;;5021175;28;20203;-59
2024/01/22 04:49:26;;;;;;;2.80;1.20;;;;;;;;;;5021360;28;20193;-60
2024/01/22 04:51:53;;;;;;;2.30;1.20;;;;;;;;;;5021089;28;20196;-60
2024/01/22 04:54:21;;;;;;;1.83;1.23;;;;;;;;;;5025721;28;20231;-60
2024/01/22 04:56:48;;;;;;;1.57;1.47;;;;;;;;;;5021328;28;20598;-60
2024/01/22 04:59:17;;;;;;;2.93;1.07;;;;;;;;;;5024659;28;20203;-60
2024/01/22 05:01:44;;;;;;;1.17;1.07;;;;;;;;;;5029095;28;20203;-60
2024/01/22 05:04:11;;;;;;;1.47;1.13;;;;;;;;;;5025019;28;20228;-60
2024/01/22 05:06:38;;;;;;;1.50;1.13;;;;;;;;;;5027412;28;20198;-60
2024/01/22 05:09:06;;;;;;;3.00;1.50;;;;;;;;;;5024133;28;20220;-60
2024/01/22 05:11:33;;;;;;;1.80;1.17;;;;;;;;;;5027736;28;20193;-59
2024/01/22 05:14:00;;;;;;;1.83;1.40;;;;;;;;;;5022788;28;20280;-61
2024/01/22 05:16:29;;;;;;;6.37;1.70;;;;;;;;;;5024071;28;20207;-60
2024/01/22 05:18:56;;;;;;;1.70;1.20;;;;;;;;;;5020955;28;20215;-61
2024/01/22 05:21:23;;;;;;;3.70;1.60;;;;;;;;;;5024445;28;20197;-61
2024/01/22 05:23:50;;;;;;;2.43;1.40;;;;;;;;;;5034483;28;20204;-61
2024/01/22 05:26:17;;;;;;;2.13;1.50;;;;;;;;;;5023640;28;20687;-60
2024/01/22 05:28:45;;;;;;;3.57;1.77;;;;;;;;;;5023333;28;20204;-60
2024/01/22 05:31:12;;;;;;;2.83;1.30;;;;;;;;;;5026889;28;20689;-61
2024/01/22 05:33:42;;;;;;;3.20;1.37;;;;;;;;;;5024157;28;20217;-60
2024/01/22 05:36:10;;;;;;;2.80;1.10;;;;;;;;;;5021962;28;20193;-59
2024/01/22 05:38:41;;;;;;;2.27;1.40;;;;;;;;;;5025799;28;20231;-60
2024/01/22 05:41:08;;;;;;;2.73;1.50;;;;;;;;;;5025523;28;20201;-61
2024/01/22 05:43:35;;;;;;;2.27;1.30;;;;;;;;;;5024143;28;20196;-60
2024/01/22 05:46:02;;;;;;;3.03;1.30;;;;;;;;;;5020326;28;20222;-62
2024/01/22 05:48:29;;;;;;;1.77;1.03;;;;;;;;;;5021331;28;20199;-60
2024/01/22 05:50:57;;;;;;;1.80;1.20;;;;;;;;;;5022529;28;20200;-61
2024/01/22 05:53:24;;;;;;;1.50;1.20;;;;;;;;;;5020866;28;20208;-61
2024/01/22 05:55:52;;;;;;;2.90;1.30;;;;;;;;;;5023240;28;20208;-60
2024/01/22 05:58:19;;;;;;;1.80;1.47;;;;;;;;;;5026640;28;20271;-60
2024/01/22 06:00:46;;;;;;;4.70;1.57;;;;;;;;;;5017908;28;20235;-61
2024/01/22 06:03:13;;;;;;;3.23;1.10;;;;;;;;;;5021917;28;20240;-61
2024/01/22 06:05:40;;;;;;;2.67;1.20;;;;;;;;;;5024957;28;20196;-60
2024/01/22 06:08:08;;;;;;;2.23;1.23;;;;;;;;;;5021316;28;20211;-61
2024/01/22 06:10:36;;;;;;;3.00;1.30;;;;;;;;;;5021018;28;20193;-61
2024/01/22 06:13:03;;;;;;;2.00;1.20;;;;;;;;;;5029402;28;20205;-60
2024/01/22 06:15:30;;;;;;;1.50;1.40;;;;;;;;;;5025874;28;20208;-62
2024/01/22 06:17:57;;;;;;;1.73;1.20;;;;;;;;;;5020128;28;20219;-59
2024/01/22 06:20:24;;;;;;;1.40;1.30;;;;;;;;;;5024190;28;20215;-61
2024/01/22 06:22:51;;;;;;;2.37;1.30;;;;;;;;;;5017141;28;20216;-60
2024/01/22 06:25:20;;;;;;;2.10;1.30;;;;;;;;;;5021650;28;20210;-61
2024/01/22 06:27:47;;;;;;;2.43;1.30;;;;;;;;;;5021276;28;20232;-60
2024/01/22 06:30:15;;;;;;;3.70;1.20;;;;;;;;;;5026284;28;20203;-60
2024/01/22 06:32:42;;;;;;;1.57;1.23;;;;;;;;;;5027947;28;20243;-60
2024/01/22 06:35:09;;;;;;;1.50;1.40;;;;;;;;;;5027345;28;20213;-60
2024/01/22 06:37:37;;;;;;;1.60;1.50;;;;;;;;;;5024679;28;20431;-60
2024/01/22 06:40:04;;;;;;;2.10;1.27;;;;;;;;;;5024462;28;20205;-60
2024/01/22 06:42:32;;;;;;;1.83;1.40;;;;;;;;;;5024546;28;20204;-59
2024/01/22 06:45:00;;;;;;;1.33;1.23;;;;;;;;;;5021988;28;20279;-66
2024/01/22 06:47:29;;;;;;;3.13;1.60;;;;;;;;;;5021007;28;20207;-66
2024/01/22 06:49:57;;;;;;;1.83;1.40;;;;;;;;;;5014740;28;20212;-64
2024/01/22 06:52:24;;;;;;;2.00;1.37;;;;;;;;;;5022402;28;20208;-64
2024/01/22 06:54:51;;;;;;;1.23;1.23;;;;;;;;;;5024701;28;20222;-64
2024/01/22 06:57:18;;;;;;;2.63;1.43;;;;;;;;;;5025644;28;20292;-65
2024/01/22 06:59:48;;;;;;;1.60;1.23;;;;;;;;;;5018779;28;20254;-66
2024/01/22 07:02:15;;;;;;;1.30;1.20;;;;;;;;;;5024009;28;20207;-66
2024/01/22 07:04:43;;;;;;;2.23;1.33;;;;;;;;;;5023533;28;20396;-66
2024/01/22 07:07:10;;;;;;;1.50;1.40;;;;;;;;;;5023020;28;20200;-67
2024/01/22 07:09:37;;;;;;;1.63;1.10;;;;;;;;;;5025949;28;20197;-67
2024/01/22 07:12:05;;;;;;;1.50;1.20;;;;;;;;;;5019088;28;20219;-67
2024/01/22 07:14:32;;;;;;;1.50;1.30;;;;;;;;;;5022380;28;20224;-66
2024/01/22 07:17:00;;;;;;;2.00;1.20;;;;;;;;;;5021671;28;20197;-66
2024/01/22 07:19:27;;;;;;;1.33;1.20;;;;;;;;;;5022871;28;20443;-67
2024/01/22 07:21:55;;;;;;;1.93;1.70;;;;;;;;;;5020415;28;20215;-66
2024/01/22 07:24:22;;;;;;;1.70;1.27;;;;;;;;;;5024829;28;20192;-65
2024/01/22 07:26:49;;;;;;;1.33;1.23;;;;;;;;;;5022174;28;20211;-66
2024/01/22 07:29:16;;;;;;;1.90;1.40;;;;;;;;;;5024428;28;20204;-66
2024/01/22 07:31:43;;;;;;;2.17;1.23;;;;;;;;;;5021955;28;20205;-66
2024/01/22 07:34:12;;;;;;;1.83;1.20;;;;;;;;;;5020111;28;20227;-66
2024/01/22 07:36:39;;;;;;;3.27;1.47;;;;;;;;;;5026511;28;20196;-64
2024/01/22 07:39:07;;;;;;;1.60;1.30;;;;;;;;;;5024051;28;20212;-66
2024/01/22 07:41:34;;;;;;;1.70;1.60;;;;;;;;;;5023722;28;20216;-66
2024/01/22 07:44:01;;;;;;;1.50;1.40;;;;;;;;;;5019458;28;20197;-65
2024/01/22 07:46:29;;;;;;;1.50;1.30;;;;;;;;;;5021704;28;20197;-66
2024/01/22 07:48:56;;;;;;;2.17;1.33;;;;;;;;;;5022705;28;20267;-66
2024/01/22 07:51:25;;;;;;;1.97;1.37;;;;;;;;;;5020328;28;20207;-65
2024/01/22 07:53:52;;;;;;;1.60;1.40;;;;;;;;;;5021798;28;20209;-66
2024/01/22 07:56:20;;;;;;;1.87;1.40;;;;;;;;;;5022957;28;20212;-66
2024/01/22 07:58:47;;;;;;;1.50;1.40;;;;;;;;;;5025220;28;20204;-65
2024/01/22 08:01:14;;;;;;;1.40;1.30;;;;;;;;;;5019666;28;20204;-65
2024/01/22 08:03:42;;;;;;;2.23;1.40;;;;;;;;;;5022746;28;20235;-66
2024/01/22 08:06:09;;;;;;;1.63;1.53;;;;;;;;;;5022652;28;20192;-65
2024/01/22 08:08:37;;;;;;;1.80;1.50;;;;;;;;;;5018873;28;20200;-65
2024/01/22 08:11:05;;;;;;;1.50;1.40;;;;;;;;;;5020310;28;20196;-64
2024/01/22 08:13:32;;;;;;;1.73;1.50;;;;;;;;;;5026142;28;20206;-67
2024/01/22 08:15:59;;;;;;;2.33;1.70;;;;;;;;;;5020006;28;20216;-65
2024/01/22 08:18:26;;;;;;;1.93;1.50;;;;;;;;;;5026094;28;20208;-66
2024/01/22 08:20:53;;;;;;;1.63;1.53;;;;;;;;;;5018857;28;20216;-66
2024/01/22 08:23:20;;;;;;;1.70;1.60;;;;;;;;;;5016633;28;20213;-66
2024/01/22 08:25:49;;;;;;;1.97;1.47;;;;;;;;;;5024215;28;20204;-65
2024/01/22 08:28:16;;;;;;;2.60;1.63;;;;;;;;;;5022682;28;20203;-66
2024/01/22 08:30:43;;;;;;;1.70;1.60;;;;;;;;;;5022738;28;20201;-67
2024/01/22 08:33:10;;;;;;;2.03;1.63;;;;;;;;;;5018180;28;20214;-66
2024/01/22 08:35:37;;;;;;;2.20;1.80;;;;;;;;;;5019635;28;20208;-66
2024/01/22 08:38:04;;;;;;;1.73;1.60;;;;;;;;;;5020862;28;20208;-65
2024/01/22 08:40:31;;;;;;;3.80;2.03;;;;;;;;;;5022799;28;20193;-66
2024/01/22 08:43:00;;;;;;;1.77;1.67;;;;;;;;;;5016590;28;20215;-65
2024/01/22 08:45:27;;;;;;;1.97;1.80;;;;;;;;;;5020341;28;20200;-66
2024/01/22 08:47:54;;;;;;;2.27;1.87;;;;;;;;;;5016589;28;20204;-65
2024/01/22 08:50:22;;;;;;;3.80;1.67;;;;;;;;;;5009523;28;20208;-66
2024/01/22 08:52:50;;;;;;;1.93;1.50;;;;;;;;;;5006390;28;20204;-65
2024/01/22 08:55:18;;;;;;;1.57;1.47;;;;;;;;;;5006759;28;20584;-66
2024/01/22 08:57:46;;;;;;;1.77;1.67;;;;;;;;;;5005882;28;20298;-66
2024/01/22 09:00:15;;;;;;;1.67;1.30;;;;;;;;;;5008623;28;20222;-67
2024/01/22 09:02:42;;;;;;;1.40;1.30;;;;;;;;;;5007355;28;20265;-66
2024/01/22 09:05:10;;;;;;;1.23;1.23;;;;;;;;;;5008704;28;20201;-65
2024/01/22 09:07:37;;;;;;;1.50;1.40;;;;;;;;;;5011323;28;20227;-66
2024/01/22 09:10:07;;;;;;;1.47;1.37;;;;;;;;;;5005879;28;20205;-66
2024/01/22 09:12:34;;;;;;;1.50;1.40;;;;;;;;;;5009244;28;20196;-66
2024/01/22 09:15:01;;;;;;;1.40;1.30;;;;;;;;;;5008903;28;20626;-65
2024/01/22 09:17:30;;;;;;;1.90;1.30;;;;;;;;;;5009858;28;20216;-65
2024/01/22 09:19:57;;;;;;;1.87;1.40;;;;;;;;;;5006319;28;20254;-64
2024/01/22 09:22:24;;;;;;;1.50;1.40;;;;;;;;;;5007709;28;20236;-66
2024/01/22 09:24:52;;;;;;;1.20;1.20;;;;;;;;;;5007265;28;20200;-66
2024/01/22 09:27:20;;;;;;;1.60;1.50;;;;;;;;;;5006409;28;20197;-64
2024/01/22 09:29:47;;;;;;;1.60;1.50;;;;;;;;;;5007587;28;20211;-66
2024/01/22 09:32:15;;;;;;;1.70;1.40;;;;;;;;;;5005209;28;20207;-64
2024/01/22 09:34:43;;;;;;;1.30;1.30;;;;;;;;;;5006183;28;20216;-66
2024/01/22 09:37:11;;;;;;;2.10;1.30;;;;;;;;;;5009332;28;20207;-66
2024/01/22 09:39:38;;;;;;;1.70;1.57;;;;;;;;;;5005217;28;20690;-65
2024/01/22 09:42:05;;;;;;;1.60;1.50;;;;;;;;;;5008332;28;20205;-66
2024/01/22 09:44:33;;;;;;;1.80;1.50;;;;;;;;;;5007216;28;20208;-66
2024/01/22 09:47:02;;;;;;;2.37;1.47;;;;;;;;;;5008112;28;20209;-65
2024/01/22 09:49:29;;;;;;;1.70;1.57;;;;;;;;;;5006759;28;20346;-65
2024/01/22 09:51:58;;;;;;;1.47;1.37;;;;;;;;;;5010334;28;20212;-65
2024/01/22 09:54:27;;;;;;;1.90;1.50;;;;;;;;;;5008230;28;20205;-64
2024/01/22 09:56:55;;;;;;;1.93;1.70;;;;;;;;;;5009332;28;20196;-65
2024/01/22 09:59:24;;;;;;;2.33;1.80;;;;;;;;;;5011654;28;20801;-65
2024/01/22 10:01:52;;;;;;;1.97;1.87;;;;;;;;;;5011054;28;20204;-65
2024/01/22 10:04:20;;;;;;;1.53;1.43;;;;;;;;;;5008375;28;20243;-66
2024/01/22 10:06:49;;;;;;;1.83;1.60;;;;;;;;;;5003294;28;20675;-65
2024/01/22 10:09:17;;;;;;;1.70;1.53;;;;;;;;;;5000912;28;20266;-65
2024/01/22 10:11:45;;;;;;;1.83;1.60;;;;;;;;;;5001716;28;20208;-65
2024/01/22 10:14:12;;;;;;;2.40;1.67;;;;;;;;;;5008269;28;20215;-66
2024/01/22 10:16:39;;;;;;;1.70;1.60;;;;;;;;;;5011318;28;20437;-66
2024/01/22 10:19:08;;;;;;;3.47;3.00;;;;;;;;;;5015078;28;20205;-66
2024/01/22 10:21:35;;;;;;;5.53;4.13;;;;;;;;;;5009297;28;20204;-65
2024/01/22 10:24:03;;;;;;;4.07;2.80;;;;;;;;;;5008065;28;20219;-66
2024/01/22 10:26:32;;;;;;;4.73;3.70;;;;;;;;;;5007666;28;20212;-66
2024/01/22 10:29:13;;;;;;;3.33;2.00;;;;;;;;;;5009520;28;20239;-64
2024/01/22 10:31:53;;;;;;;2.30;1.90;;;;;;;;;;5009547;28;20201;-65
2024/01/22 10:34:20;;;;;;;2.77;1.90;;;;;;;;;;5005347;28;20215;-65
2024/01/22 10:37:04;;;;;;;2.43;2.20;;;;;;;;;;5006849;28;20219;-66
2024/01/22 10:39:31;;;;;;;2.87;2.10;;;;;;;;;;5004081;28;20204;-66
2024/01/22 10:42:01;;;;;;;1.60;1.50;;;;;;;;;;5003856;28;20207;-66
2024/01/22 10:44:30;;;;;;;1.90;1.70;;;;;;;;;;4993816;28;20208;-65
2024/01/22 10:46:57;;;;;;;1.97;1.53;;;;;;;;;;4994169;28;20200;-65
2024/01/22 10:49:24;;;;;;;2.47;2.00;;;;;;;;;;5002800;28;20342;-66
2024/01/22 10:51:52;;;;;;;2.27;1.63;;;;;;;;;;5006634;28;20204;-66
2024/01/22 10:54:19;;;;;;;1.80;1.60;;;;;;;;;;5000302;28;20214;-65
2024/01/22 10:56:47;;;;;;;2.17;1.60;;;;;;;;;;4999920;28;20680;-65
2024/01/22 10:59:18;;;;;;;1.97;1.70;;;;;;;;;;5000497;28;20204;-65
2024/01/22 11:01:48;;;;;;;1.50;1.40;;;;;;;;;;5001358;28;20275;-66
2024/01/22 11:04:16;;;;;;;2.00;1.70;;;;;;;;;;5012007;28;20238;-66
2024/01/22 11:06:43;;;;;;;2.37;2.10;;;;;;;;;;5006370;28;20208;-65
2024/01/22 11:09:11;;;;;;;1.80;1.70;;;;;;;;;;5003534;28;20209;-65
2024/01/22 11:11:39;;;;;;;3.10;1.60;;;;;;;;;;5006707;28;20231;-65
2024/01/22 11:14:07;;;;;;;1.60;1.50;;;;;;;;;;5009195;28;21275;-65
2024/01/22 11:16:34;;;;;;;1.50;1.40;;;;;;;;;;5010848;28;20226;-66
2024/01/22 11:19:04;;;;;;;1.50;1.40;;;;;;;;;;5008807;28;20200;-66
2024/01/22 11:21:34;;;;;;;1.70;1.50;;;;;;;;;;5011705;28;20207;-66
2024/01/22 11:24:12;;;;;;;2.53;2.33;;;;;;;;;;5016660;28;20200;-60
2024/01/22 11:26:43;;;;;;;1.27;1.17;;;;;;;;;;5013310;28;20255;-62
2024/01/22 11:29:13;;;;;;;2.87;1.80;;;;;;;;;;5007743;28;20215;-60
2024/01/22 11:31:41;;;;;;;1.60;1.50;;;;;;;;;;5006313;28;20193;-62
2024/01/22 11:34:09;;;;;;;1.20;1.20;;;;;;;;;;5007469;28;20204;-62
2024/01/22 11:36:53;;;;;;;2.40;1.80;;;;;;;;;;5005732;28;20690;-63
2024/01/22 11:39:41;;;;;;;2.03;1.80;;;;;;;;;;5003366;28;20200;-61
2024/01/22 11:42:26;;;;;;;1.60;1.50;;;;;;;;;;5002089;28;20277;-62
2024/01/22 11:44:54;;;;;;;2.07;1.77;;;;;;;;;;5004331;28;20204;-62
2024/01/22 11:47:22;;;;;;;3.33;2.00;;;;;;;;;;5015332;28;20499;-61
2024/01/22 11:49:50;;;;;;;2.20;2.00;;;;;;;;;;5007268;28;20211;-62
2024/01/22 11:52:18;;;;;;;2.43;1.70;;;;;;;;;;5021584;28;20247;-61
2024/01/22 11:54:52;;;;;;;1.97;1.50;;;;;;;;;;5019206;28;20224;-62
2024/01/22 11:57:20;;;;;;;2.33;1.50;;;;;;;;;;5017124;28;20220;-61
2024/01/22 11:59:58;;;;;;;3.10;1.60;;;;;;;;;;5023454;28;20205;-61
2024/01/22 12:02:25;;;;;;;1.70;1.30;;;;;;;;;;5016987;28;20223;-60
2024/01/22 12:05:01;;;;;;;2.10;1.40;;;;;;;;;;5019149;28;20204;-63
2024/01/22 12:07:35;;;;;;;1.60;1.47;;;;;;;;;;5015781;28;20331;-61
2024/01/22 12:10:02;;;;;;;2.20;1.90;;;;;;;;;;5018362;28;20240;-60
2024/01/22 12:12:29;;;;;;;1.63;1.53;;;;;;;;;;5013728;28;20204;-60
2024/01/22 12:14:57;;;;;;;1.30;1.20;;;;;;;;;;5018175;28;20208;-61
2024/01/22 12:17:24;;;;;;;1.20;1.10;;;;;;;;;;5015937;28;20224;-61
2024/01/22 12:19:53;;;;;;;2.73;1.30;;;;;;;;;;5014530;28;20200;-61
2024/01/22 12:22:23;;;;;;;1.70;1.10;;;;;;;;;;5013932;28;20225;-61
2024/01/22 12:25:06;;;;;;;1.47;1.20;;;;;;;;;;5017462;28;20204;-62
2024/01/22 12:27:33;;;;;;;1.03;1.03;;;;;;;;;;5010645;28;20247;-61
2024/01/22 12:30:01;;;;;;;1.43;1.17;;;;;;;;;;5012998;28;20231;-61
2024/01/22 12:32:28;;;;;;;2.83;1.30;;;;;;;;;;5020741;28;20202;-61
2024/01/22 12:34:56;;;;;;;2.73;1.80;;;;;;;;;;5019233;28;20196;-61
2024/01/22 12:37:25;;;;;;;3.97;1.63;;;;;;;;;;5020414;28;20296;-60
2024/01/22 12:40:05;;;;;;;3.20;1.40;;;;;;;;;;5019962;28;20224;-60
2024/01/22 12:42:32;;;;;;;3.00;1.17;;;;;;;;;;5019213;28;20207;-61
2024/01/22 12:45:00;;;;;;;1.27;0.60;;;;;;;;;;5018229;28;20200;-62
2024/01/22 12:47:27;;;;;;;2.30;0.97;;;;;;;;;;5021748;28;20443;-61
2024/01/22 12:49:54;;;;;;;2.67;0.97;;;;;;;;;;5021872;28;20204;-61
2024/01/22 12:52:21;;;;;;;1.80;0.97;;;;;;;;;;5021273;28;20211;-61
2024/01/22 12:54:50;;;;;;;4.03;1.30;;;;;;;;;;5017834;28;20204;-60
2024/01/22 12:57:17;;;;;;;5.70;1.70;;;;;;;;;;5018630;28;20242;-60
2024/01/22 12:59:46;;;;;;;3.93;1.10;;;;;;;;;;5022404;28;20200;-61
2024/01/22 13:02:13;;;;;;;3.30;1.47;;;;;;;;;;5017720;28;20223;-62
2024/01/22 13:04:40;;;;;;;2.23;1.30;;;;;;;;;;5019631;28;20223;-60
2024/01/22 13:07:07;;;;;;;6.90;1.77;;;;;;;;;;5009923;28;20196;-60
2024/01/22 13:09:34;;;;;;;3.33;1.40;;;;;;;;;;5005592;28;20215;-62
2024/01/22 13:12:04;;;;;;;2.57;1.03;;;;;;;;;;5007268;28;20208;-60
2024/01/22 13:14:31;;;;;;;4.70;1.60;;;;;;;;;;5010296;28;20196;-60
2024/01/22 13:17:01;;;;;;;5.57;1.70;;;;;;;;;;5007225;28;20290;-62
2024/01/22 13:19:28;;;;;;;4.47;1.50;;;;;;;;;;5010112;28;20204;-60
2024/01/22 13:21:55;;;;;;;4.70;1.60;;;;;;;;;;5010513;28;20196;-61
2024/01/22 13:24:22;;;;;;;4.47;1.40;;;;;;;;;;5019462;28;20208;-61
2024/01/22 13:26:49;;;;;;;5.53;1.57;;;;;;;;;;5009942;28;20212;-61
2024/01/22 13:29:18;;;;;;;4.87;1.70;;;;;;;;;;5018355;28;20200;-60
2024/01/22 13:31:46;;;;;;;2.87;1.23;;;;;;;;;;5025195;28;20209;-60
2024/01/22 13:34:13;;;;;;;5.13;1.30;;;;;;;;;;5022335;28;20237;-61
2024/01/22 13:36:40;;;;;;;5.30;1.40;;;;;;;;;;5012906;28;20216;-60
2024/01/22 13:39:07;;;;;;;4.07;1.37;;;;;;;;;;5023108;28;20208;-60
2024/01/22 13:41:34;;;;;;;6.53;1.60;;;;;;;;;;5027373;28;20200;-61
2024/01/22 13:44:05;;;;;;;6.33;1.70;;;;;;;;;;5024682;28;20204;-61
2024/01/22 13:46:33;;;;;;;5.27;1.50;;;;;;;;;;5025193;28;20207;-60
2024/01/22 13:49:01;;;;;;;6.60;1.50;;;;;;;;;;5020324;28;20197;-60
2024/01/22 13:51:28;;;;;;;6.77;1.90;;;;;;;;;;5022328;28;20201;-61
2024/01/22 13:53:55;;;;;;;7.33;1.83;;;;;;;;;;5016295;28;20244;-60
2024/01/22 13:56:22;;;;;;;7.40;1.97;;;;;;;;;;5017931;28;20216;-61
2024/01/22 13:58:50;;;;;;;6.33;1.80;;;;;;;;;;5022697;28;20196;-60
2024/01/22 14:01:18;;;;;;;9.23;2.53;;;;;;;;;;5025175;28;20250;-60
2024/01/22 14:03:46;;;;;;;6.97;2.20;;;;;;;;;;5022723;28;20267;-60
2024/01/22 14:06:13;;;;;;;5.90;1.97;;;;;;;;;;5018828;28;20201;-60
2024/01/22 14:08:40;;;;;;;9.37;2.07;;;;;;;;;;5024402;28;20219;-61
2024/01/22 14:11:08;;;;;;;5.93;2.03;;;;;;;;;;5024263;28;20208;-60
2024/01/22 14:13:35;;;;;;;9.93;2.50;;;;;;;;;;5016447;28;20197;-61
2024/01/22 14:16:02;;;;;;;9.50;2.10;;;;;;;;;;5014293;28;20199;-62
2024/01/22 14:18:30;;;;;;;7.80;1.90;;;;;;;;;;5019178;28;20215;-60
2024/01/22 14:20:58;;;;;;;9.67;2.50;;;;;;;;;;5022142;28;20205;-60
2024/01/22 14:23:25;;;;;;;10.13;2.20;;;;;;;;;;5022053;28;20201;-60
2024/01/22 14:25:52;;;;;;;7.23;2.03;;;;;;;;;;5025906;28;20210;-61
2024/01/22 14:28:19;;;;;;;8.60;1.97;;;;;;;;;;5020475;28;20228;-60
2024/01/22 14:30:47;;;;;;;8.87;2.43;;;;;;;;;;5019449;28;20211;-60
2024/01/22 14:33:16;;;;;;;8.60;2.30;;;;;;;;;;5022983;28;20215;-61
2024/01/22 14:35:44;;;;;;;12.13;2.33;;;;;;;;;;5013732;28;20214;-60
2024/01/22 14:38:13;;;;;;;9.23;2.50;;;;;;;;;;5015852;28;20234;-60
2024/01/22 14:40:40;;;;;;;9.87;2.50;;;;;;;;;;5019008;28;20205;-61
2024/01/22 14:43:09;;;;;;;9.50;2.13;;;;;;;;;;5012861;28;20279;-61
2024/01/22 14:45:36;;;;;;;12.70;3.07;;;;;;;;;;5019634;28;20368;-61
2024/01/22 14:48:04;;;;;;;11.57;2.70;;;;;;;;;;5013607;28;20285;-61